sensor_id;sensor_type;location;lat;lon;timestamp;temperature;humidity
30206;DHT22;17010;51.306;3.150;2023-05-10T00:00:01;12.80;99.90
30206;DHT22;17010;51.306;3.150;2023-05-10T00:02:30;12.80;99.90
30206;DHT22;17010;51.306;3.150;2023-05-10T00:04:56;12.80;99.90
30206;DHT22;17010;51.306;3.150;2023-05-10T00:07:23;12.80;99.90
30206;DHT22;17010;51.306;3.150;2023-05-10T00:09:50;12.80;99.90
30206;DHT22;17010;51.306;3.150;2023-05-10T00:12:17;12.80;99.90
30206;DHT22;17010;51.306;3.150;2023-05-10T00:14:43;12.70;99.90
30206;DHT22;17010;51.306;3.150;2023-05-10T00:17:09;12.80;99.90
30206;DHT22;17010;51.306;3.150;2023-05-10T00:19:36;12.70;99.90
30206;DHT22;17010;51.306;3.150;2023-05-10T00:22:04;12.70;99.90
30206;DHT22;17010;51.306;3.150;2023-05-10T00:24:32;12.70;99.90
30206;DHT22;17010;51.306;3.150;2023-05-10T00:27:03;12.60;99.90
30206;DHT22;17010;51.306;3.150;2023-05-10T00:29:30;12.60;99.90
30206;DHT22;17010;51.306;3.150;2023-05-10T00:32:01;12.60;99.90
30206;DHT22;17010;51.306;3.150;2023-05-10T00:34:29;12.60;99.90
30206;DHT22;17010;51.306;3.150;2023-05-10T00:36:56;12.60;99.90
30206;DHT22;17010;51.306;3.150;2023-05-10T00:39:22;12.60;99.90
30206;DHT22;17010;51.306;3.150;2023-05-10T00:41:50;12.60;99.90
30206;DHT22;17010;51.306;3.150;2023-05-10T00:44:20;12.60;99.90
30206;DHT22;17010;51.306;3.150;2023-05-10T00:46:47;12.70;99.90
30206;DHT22;17010;51.306;3.150;2023-05-10T00:49:14;12.70;99.90
30206;DHT22;17010;51.306;3.150;2023-05-10T00:51:40;12.70;99.90
30206;DHT22;17010;51.306;3.150;2023-05-10T00:54:10;12.80;99.90
30206;DHT22;17010;51.306;3.150;2023-05-10T00:56:37;12.80;99.90
30206;DHT22;17010;51.306;3.150;2023-05-10T00:59:04;12.70;99.90
30206;DHT22;17010;51.306;3.150;2023-05-10T01:01:30;12.80;99.90
30206;DHT22;17010;51.306;3.150;2023-05-10T01:03:58;12.80;99.90
30206;DHT22;17010;51.306;3.150;2023-05-10T01:06:26;12.70;99.90
30206;DHT22;17010;51.306;3.150;2023-05-10T01:08:53;12.70;99.90
30206;DHT22;17010;51.306;3.150;2023-05-10T01:11:20;12.70;99.90
30206;DHT22;17010;51.306;3.150;2023-05-10T01:13:52;12.70;99.90
30206;DHT22;17010;51.306;3.150;2023-05-10T01:16:20;12.70;99.90
30206;DHT22;17010;51.306;3.150;2023-05-10T01:18:48;12.70;99.90
30206;DHT22;17010;51.306;3.150;2023-05-10T01:21:26;12.80;99.90
30206;DHT22;17010;51.306;3.150;2023-05-10T01:35:19;12.80;99.90
30206;DHT22;17010;51.306;3.150;2023-05-10T01:38:07;12.80;99.90
30206;DHT22;17010;51.306;3.150;2023-05-10T01:40:42;12.80;99.90
30206;DHT22;17010;51.306;3.150;2023-05-10T01:43:19;12.80;99.90
30206;DHT22;17010;51.306;3.150;2023-05-10T01:46:03;12.80;99.90
30206;DHT22;17010;51.306;3.150;2023-05-10T01:48:42;12.70;99.90
30206;DHT22;17010;51.306;3.150;2023-05-10T01:51:19;12.80;99.90
30206;DHT22;17010;51.306;3.150;2023-05-10T01:53:48;12.80;99.90
30206;DHT22;17010;51.306;3.150;2023-05-10T01:56:15;12.70;99.90
30206;DHT22;17010;51.306;3.150;2023-05-10T01:58:47;12.60;99.90
30206;DHT22;17010;51.306;3.150;2023-05-10T02:01:17;12.70;99.90
30206;DHT22;17010;51.306;3.150;2023-05-10T02:03:46;12.60;99.90
30206;DHT22;17010;51.306;3.150;2023-05-10T02:06:15;12.70;99.90
30206;DHT22;17010;51.306;3.150;2023-05-10T02:08:46;12.70;99.90
30206;DHT22;17010;51.306;3.150;2023-05-10T02:11:13;12.60;99.90
30206;DHT22;17010;51.306;3.150;2023-05-10T02:13:40;12.60;99.90
30206;DHT22;17010;51.306;3.150;2023-05-10T02:16:08;12.50;99.90
30206;DHT22;17010;51.306;3.150;2023-05-10T02:18:35;12.60;99.90
30206;DHT22;17010;51.306;3.150;2023-05-10T02:21:02;12.50;99.90
30206;DHT22;17010;51.306;3.150;2023-05-10T02:23:29;12.50;99.90
30206;DHT22;17010;51.306;3.150;2023-05-10T02:25:57;12.50;99.90
30206;DHT22;17010;51.306;3.150;2023-05-10T02:28:35;12.40;99.90
30206;DHT22;17010;51.306;3.150;2023-05-10T02:31:05;12.50;99.90
30206;DHT22;17010;51.306;3.150;2023-05-10T02:33:33;12.40;99.90
30206;DHT22;17010;51.306;3.150;2023-05-10T02:36:01;12.40;99.90
30206;DHT22;17010;51.306;3.150;2023-05-10T02:38:27;12.30;99.90
30206;DHT22;17010;51.306;3.150;2023-05-10T02:40:58;12.40;99.90
30206;DHT22;17010;51.306;3.150;2023-05-10T02:43:27;12.40;99.90
30206;DHT22;17010;51.306;3.150;2023-05-10T02:45:56;12.40;99.90
30206;DHT22;17010;51.306;3.150;2023-05-10T02:48:23;12.40;99.90
30206;DHT22;17010;51.306;3.150;2023-05-10T02:50:51;12.40;99.90
30206;DHT22;17010;51.306;3.150;2023-05-10T02:53:28;12.40;99.90
30206;DHT22;17010;51.306;3.150;2023-05-10T02:56:00;12.50;99.90
30206;DHT22;17010;51.306;3.150;2023-05-10T02:58:27;12.40;99.90
30206;DHT22;17010;51.306;3.150;2023-05-10T03:00:55;12.40;99.90
30206;DHT22;17010;51.306;3.150;2023-05-10T03:03:22;12.40;99.90
30206;DHT22;17010;51.306;3.150;2023-05-10T03:05:49;12.30;99.90
30206;DHT22;17010;51.306;3.150;2023-05-10T03:08:16;12.40;99.90
30206;DHT22;17010;51.306;3.150;2023-05-10T03:10:51;12.40;99.90
30206;DHT22;17010;51.306;3.150;2023-05-10T03:13:34;12.30;99.90
30206;DHT22;17010;51.306;3.150;2023-05-10T03:16:10;12.30;99.90
30206;DHT22;17010;51.306;3.150;2023-05-10T03:18:50;12.30;99.90
30206;DHT22;17010;51.306;3.150;2023-05-10T03:21:21;12.40;99.90
30206;DHT22;17010;51.306;3.150;2023-05-10T03:24:08;12.40;99.90
30206;DHT22;17010;51.306;3.150;2023-05-10T03:26:37;12.40;99.90
30206;DHT22;17010;51.306;3.150;2023-05-10T03:29:06;12.40;99.90
30206;DHT22;17010;51.306;3.150;2023-05-10T03:31:34;12.50;99.90
30206;DHT22;17010;51.306;3.150;2023-05-10T03:34:00;12.50;99.90
30206;DHT22;17010;51.306;3.150;2023-05-10T03:36:28;12.50;99.90
30206;DHT22;17010;51.306;3.150;2023-05-10T03:38:55;12.50;99.90
30206;DHT22;17010;51.306;3.150;2023-05-10T03:41:23;12.50;99.90
30206;DHT22;17010;51.306;3.150;2023-05-10T03:43:49;12.60;99.90
30206;DHT22;17010;51.306;3.150;2023-05-10T03:46:17;12.60;99.90
30206;DHT22;17010;51.306;3.150;2023-05-10T03:48:44;12.60;99.90
30206;DHT22;17010;51.306;3.150;2023-05-10T03:51:10;12.70;99.90
30206;DHT22;17010;51.306;3.150;2023-05-10T03:53:37;12.70;99.90
30206;DHT22;17010;51.306;3.150;2023-05-10T03:56:03;12.70;99.90
30206;DHT22;17010;51.306;3.150;2023-05-10T03:58:32;12.70;99.90
30206;DHT22;17010;51.306;3.150;2023-05-10T04:00:59;12.80;99.90
30206;DHT22;17010;51.306;3.150;2023-05-10T04:03:25;12.70;99.90
30206;DHT22;17010;51.306;3.150;2023-05-10T04:06:02;12.70;99.90
30206;DHT22;17010;51.306;3.150;2023-05-10T04:08:29;12.70;99.90
30206;DHT22;17010;51.306;3.150;2023-05-10T04:11:11;12.70;99.90
30206;DHT22;17010;51.306;3.150;2023-05-10T04:13:38;12.60;99.90
30206;DHT22;17010;51.306;3.150;2023-05-10T04:16:07;12.60;99.90
30206;DHT22;17010;51.306;3.150;2023-05-10T04:18:34;12.50;99.90
30206;DHT22;17010;51.306;3.150;2023-05-10T04:21:03;12.60;99.90
30206;DHT22;17010;51.306;3.150;2023-05-10T04:23:32;12.60;99.90
30206;DHT22;17010;51.306;3.150;2023-05-10T04:26:03;12.60;99.90
30206;DHT22;17010;51.306;3.150;2023-05-10T04:28:30;12.60;99.90
30206;DHT22;17010;51.306;3.150;2023-05-10T04:31:10;12.60;99.90
30206;DHT22;17010;51.306;3.150;2023-05-10T04:33:41;12.60;99.90
30206;DHT22;17010;51.306;3.150;2023-05-10T04:36:07;12.70;99.90
30206;DHT22;17010;51.306;3.150;2023-05-10T04:38:34;12.80;99.90
30206;DHT22;17010;51.306;3.150;2023-05-10T04:41:08;12.80;99.90
30206;DHT22;17010;51.306;3.150;2023-05-10T04:43:39;13.00;99.90
30206;DHT22;17010;51.306;3.150;2023-05-10T04:46:06;13.00;99.90
30206;DHT22;17010;51.306;3.150;2023-05-10T04:48:40;13.10;99.90
30206;DHT22;17010;51.306;3.150;2023-05-10T04:51:11;13.20;99.90
30206;DHT22;17010;51.306;3.150;2023-05-10T04:53:38;13.30;99.90
30206;DHT22;17010;51.306;3.150;2023-05-10T04:56:06;13.40;99.90
30206;DHT22;17010;51.306;3.150;2023-05-10T04:58:35;13.40;99.90
30206;DHT22;17010;51.306;3.150;2023-05-10T05:01:27;13.50;99.90
30206;DHT22;17010;51.306;3.150;2023-05-10T05:03:56;13.60;99.90
30206;DHT22;17010;51.306;3.150;2023-05-10T05:06:22;13.70;99.90
30206;DHT22;17010;51.306;3.150;2023-05-10T05:08:51;13.70;99.90
30206;DHT22;17010;51.306;3.150;2023-05-10T05:11:18;13.80;99.90
30206;DHT22;17010;51.306;3.150;2023-05-10T05:13:48;13.90;99.90
30206;DHT22;17010;51.306;3.150;2023-05-10T05:16:14;14.00;99.90
30206;DHT22;17010;51.306;3.150;2023-05-10T05:18:42;14.10;99.90
30206;DHT22;17010;51.306;3.150;2023-05-10T05:21:39;14.10;99.90
30206;DHT22;17010;51.306;3.150;2023-05-10T05:24:06;14.20;99.90
30206;DHT22;17010;51.306;3.150;2023-05-10T05:26:35;14.20;99.90
30206;DHT22;17010;51.306;3.150;2023-05-10T05:29:01;14.30;99.90
30206;DHT22;17010;51.306;3.150;2023-05-10T05:31:31;14.30;99.90
30206;DHT22;17010;51.306;3.150;2023-05-10T05:33:58;14.20;99.90
30206;DHT22;17010;51.306;3.150;2023-05-10T05:36:29;14.40;99.90
30206;DHT22;17010;51.306;3.150;2023-05-10T05:38:58;14.40;99.90
30206;DHT22;17010;51.306;3.150;2023-05-10T05:41:30;14.50;99.90
30206;DHT22;17010;51.306;3.150;2023-05-10T05:43:57;14.60;99.90
30206;DHT22;17010;51.306;3.150;2023-05-10T05:46:38;14.70;99.90
30206;DHT22;17010;51.306;3.150;2023-05-10T05:49:05;14.70;99.90
30206;DHT22;17010;51.306;3.150;2023-05-10T05:51:37;14.70;99.90
30206;DHT22;17010;51.306;3.150;2023-05-10T05:54:06;14.90;99.90
30206;DHT22;17010;51.306;3.150;2023-05-10T05:56:33;15.20;99.90
30206;DHT22;17010;51.306;3.150;2023-05-10T05:59:02;15.50;99.90
30206;DHT22;17010;51.306;3.150;2023-05-10T06:01:30;15.70;99.90
30206;DHT22;17010;51.306;3.150;2023-05-10T06:04:00;15.80;99.90
30206;DHT22;17010;51.306;3.150;2023-05-10T06:06:35;15.60;99.90
30206;DHT22;17010;51.306;3.150;2023-05-10T06:09:02;15.50;99.90
30206;DHT22;17010;51.306;3.150;2023-05-10T06:11:28;15.50;99.90
30206;DHT22;17010;51.306;3.150;2023-05-10T06:13:54;15.40;99.90
30206;DHT22;17010;51.306;3.150;2023-05-10T06:16:21;15.40;99.90
30206;DHT22;17010;51.306;3.150;2023-05-10T06:18:47;15.40;99.90
30206;DHT22;17010;51.306;3.150;2023-05-10T06:21:13;15.40;99.90
30206;DHT22;17010;51.306;3.150;2023-05-10T06:23:40;15.30;99.90
30206;DHT22;17010;51.306;3.150;2023-05-10T06:26:07;15.30;99.90
30206;DHT22;17010;51.306;3.150;2023-05-10T06:28:33;15.40;99.90
30206;DHT22;17010;51.306;3.150;2023-05-10T06:31:00;15.30;99.90
30206;DHT22;17010;51.306;3.150;2023-05-10T06:33:27;15.30;99.90
30206;DHT22;17010;51.306;3.150;2023-05-10T06:35:54;15.20;99.90
30206;DHT22;17010;51.306;3.150;2023-05-10T06:38:20;15.10;99.90
30206;DHT22;17010;51.306;3.150;2023-05-10T06:40:46;15.00;99.90
30206;DHT22;17010;51.306;3.150;2023-05-10T06:43:12;15.10;99.90
30206;DHT22;17010;51.306;3.150;2023-05-10T06:45:39;15.20;99.90
30206;DHT22;17010;51.306;3.150;2023-05-10T06:48:08;15.10;99.90
30206;DHT22;17010;51.306;3.150;2023-05-10T06:50:34;14.90;99.90
30206;DHT22;17010;51.306;3.150;2023-05-10T06:53:01;15.00;99.90
30206;DHT22;17010;51.306;3.150;2023-05-10T06:55:31;15.10;99.90
30206;DHT22;17010;51.306;3.150;2023-05-10T06:57:57;15.20;99.90
30206;DHT22;17010;51.306;3.150;2023-05-10T07:00:30;15.30;99.90
30206;DHT22;17010;51.306;3.150;2023-05-10T07:02:57;15.40;99.90
30206;DHT22;17010;51.306;3.150;2023-05-10T07:05:24;15.30;99.90
30206;DHT22;17010;51.306;3.150;2023-05-10T07:07:50;15.40;99.90
30206;DHT22;17010;51.306;3.150;2023-05-10T07:10:17;15.60;99.90
30206;DHT22;17010;51.306;3.150;2023-05-10T07:12:44;15.80;99.90
30206;DHT22;17010;51.306;3.150;2023-05-10T07:15:11;15.90;99.90
30206;DHT22;17010;51.306;3.150;2023-05-10T07:17:39;16.10;99.90
30206;DHT22;17010;51.306;3.150;2023-05-10T07:20:06;16.50;99.90
30206;DHT22;17010;51.306;3.150;2023-05-10T07:22:38;17.30;99.90
30206;DHT22;17010;51.306;3.150;2023-05-10T07:25:10;18.00;99.90
30206;DHT22;17010;51.306;3.150;2023-05-10T07:27:43;18.50;99.90
30206;DHT22;17010;51.306;3.150;2023-05-10T07:30:11;18.50;99.90
30206;DHT22;17010;51.306;3.150;2023-05-10T07:32:39;18.50;99.90
30206;DHT22;17010;51.306;3.150;2023-05-10T07:45:32;18.40;99.90
30206;DHT22;17010;51.306;3.150;2023-05-10T07:48:05;18.10;99.90
30206;DHT22;17010;51.306;3.150;2023-05-10T07:50:35;17.90;99.90
30206;DHT22;17010;51.306;3.150;2023-05-10T07:53:02;17.80;99.90
30206;DHT22;17010;51.306;3.150;2023-05-10T07:58:09;17.50;99.90
30206;DHT22;17010;51.306;3.150;2023-05-10T08:00:39;17.50;99.90
30206;DHT22;17010;51.306;3.150;2023-05-10T08:03:08;17.70;99.90
30206;DHT22;17010;51.306;3.150;2023-05-10T08:05:40;17.60;99.90
30206;DHT22;17010;51.306;3.150;2023-05-10T08:10:41;17.60;99.90
30206;DHT22;17010;51.306;3.150;2023-05-10T08:13:08;17.60;99.90
30206;DHT22;17010;51.306;3.150;2023-05-10T08:15:34;17.50;99.90
30206;DHT22;17010;51.306;3.150;2023-05-10T08:18:02;17.40;99.90
30206;DHT22;17010;51.306;3.150;2023-05-10T08:20:28;17.50;99.90
30206;DHT22;17010;51.306;3.150;2023-05-10T08:22:54;17.60;99.90
30206;DHT22;17010;51.306;3.150;2023-05-10T08:25:24;17.60;99.90
30206;DHT22;17010;51.306;3.150;2023-05-10T08:27:56;17.50;99.90
30206;DHT22;17010;51.306;3.150;2023-05-10T08:30:27;17.30;99.90
30206;DHT22;17010;51.306;3.150;2023-05-10T08:32:57;17.10;99.90
30206;DHT22;17010;51.306;3.150;2023-05-10T08:35:30;17.10;99.90
30206;DHT22;17010;51.306;3.150;2023-05-10T08:38:02;17.00;99.90
30206;DHT22;17010;51.306;3.150;2023-05-10T08:40:30;17.00;99.90
30206;DHT22;17010;51.306;3.150;2023-05-10T08:43:08;17.20;99.90
30206;DHT22;17010;51.306;3.150;2023-05-10T08:45:40;17.30;99.90
30206;DHT22;17010;51.306;3.150;2023-05-10T08:48:09;17.40;99.90
30206;DHT22;17010;51.306;3.150;2023-05-10T08:50:39;17.30;99.90
30206;DHT22;17010;51.306;3.150;2023-05-10T08:53:28;17.20;99.90
30206;DHT22;17010;51.306;3.150;2023-05-10T08:56:19;17.30;99.90
30206;DHT22;17010;51.306;3.150;2023-05-10T08:59:17;17.20;99.90
30206;DHT22;17010;51.306;3.150;2023-05-10T09:01:57;17.20;99.90
30206;DHT22;17010;51.306;3.150;2023-05-10T09:05:03;17.30;99.90
30206;DHT22;17010;51.306;3.150;2023-05-10T09:07:51;17.20;99.90
30206;DHT22;17010;51.306;3.150;2023-05-10T09:10:20;17.40;99.90
30206;DHT22;17010;51.306;3.150;2023-05-10T09:13:07;17.50;99.90
30206;DHT22;17010;51.306;3.150;2023-05-10T09:15:53;17.60;99.90
30206;DHT22;17010;51.306;3.150;2023-05-10T09:22:24;17.60;99.90
30206;DHT22;17010;51.306;3.150;2023-05-10T09:29:50;17.70;99.90
30206;DHT22;17010;51.306;3.150;2023-05-10T09:32:59;17.80;99.90
30206;DHT22;17010;51.306;3.150;2023-05-10T09:36:07;17.80;99.90
30206;DHT22;17010;51.306;3.150;2023-05-10T09:39:35;17.60;99.90
30206;DHT22;17010;51.306;3.150;2023-05-10T09:43:08;17.50;99.90
30206;DHT22;17010;51.306;3.150;2023-05-10T09:45:40;17.60;99.90
30206;DHT22;17010;51.306;3.150;2023-05-10T09:53:34;17.70;99.90
30206;DHT22;17010;51.306;3.150;2023-05-10T09:56:17;17.80;99.90
30206;DHT22;17010;51.306;3.150;2023-05-10T09:59:17;17.90;99.90
30206;DHT22;17010;51.306;3.150;2023-05-10T10:07:04;18.10;99.90
30206;DHT22;17010;51.306;3.150;2023-05-10T10:15:52;17.70;99.90
30206;DHT22;17010;51.306;3.150;2023-05-10T10:18:38;17.90;99.90
30206;DHT22;17010;51.306;3.150;2023-05-10T10:21:06;17.90;99.90
30206;DHT22;17010;51.306;3.150;2023-05-10T10:23:36;18.00;99.90
30206;DHT22;17010;51.306;3.150;2023-05-10T10:26:23;17.90;99.90
30206;DHT22;17010;51.306;3.150;2023-05-10T10:36:40;18.00;99.90
30206;DHT22;17010;51.306;3.150;2023-05-10T10:57:42;17.60;99.90
30206;DHT22;17010;51.306;3.150;2023-05-10T11:12:08;17.70;99.90
30206;DHT22;17010;51.306;3.150;2023-05-10T11:20:42;17.30;99.90
30206;DHT22;17010;51.306;3.150;2023-05-10T11:24:15;17.60;99.90
30206;DHT22;17010;51.306;3.150;2023-05-10T11:27:14;17.50;99.90
30206;DHT22;17010;51.306;3.150;2023-05-10T11:30:05;17.20;99.90
30206;DHT22;17010;51.306;3.150;2023-05-10T11:32:45;16.90;99.90
30206;DHT22;17010;51.306;3.150;2023-05-10T11:35:40;16.70;99.90
30206;DHT22;17010;51.306;3.150;2023-05-10T11:39:04;16.90;99.90
30206;DHT22;17010;51.306;3.150;2023-05-10T11:41:35;17.00;99.90
30206;DHT22;17010;51.306;3.150;2023-05-10T11:44:06;17.10;99.90
30206;DHT22;17010;51.306;3.150;2023-05-10T11:46:40;16.80;99.90
30206;DHT22;17010;51.306;3.150;2023-05-10T11:49:29;16.90;99.90
30206;DHT22;17010;51.306;3.150;2023-05-10T11:52:27;17.00;99.90
30206;DHT22;17010;51.306;3.150;2023-05-10T11:54:59;17.00;99.90
30206;DHT22;17010;51.306;3.150;2023-05-10T11:57:59;17.00;99.90
30206;DHT22;17010;51.306;3.150;2023-05-10T12:00:28;16.90;99.90
30206;DHT22;17010;51.306;3.150;2023-05-10T12:03:07;16.70;99.90
30206;DHT22;17010;51.306;3.150;2023-05-10T12:08:19;17.20;99.90
30206;DHT22;17010;51.306;3.150;2023-05-10T12:11:09;17.80;99.90
30206;DHT22;17010;51.306;3.150;2023-05-10T12:13:56;18.60;99.90
30206;DHT22;17010;51.306;3.150;2023-05-10T12:16:28;19.40;99.90
30206;DHT22;17010;51.306;3.150;2023-05-10T12:22:00;19.90;99.90
30206;DHT22;17010;51.306;3.150;2023-05-10T12:25:15;21.00;99.90
30206;DHT22;17010;51.306;3.150;2023-05-10T12:52:06;20.00;99.90
30206;DHT22;17010;51.306;3.150;2023-05-10T12:54:37;19.50;99.90
30206;DHT22;17010;51.306;3.150;2023-05-10T12:57:16;19.00;99.90
30206;DHT22;17010;51.306;3.150;2023-05-10T12:59:45;18.60;99.90
30206;DHT22;17010;51.306;3.150;2023-05-10T13:02:12;18.30;99.90
30206;DHT22;17010;51.306;3.150;2023-05-10T13:05:02;18.20;99.90
30206;DHT22;17010;51.306;3.150;2023-05-10T13:07:31;18.90;99.90
30206;DHT22;17010;51.306;3.150;2023-05-10T13:10:03;19.00;99.90
30206;DHT22;17010;51.306;3.150;2023-05-10T13:12:31;18.90;99.90
30206;DHT22;17010;51.306;3.150;2023-05-10T13:14:58;18.80;99.90
30206;DHT22;17010;51.306;3.150;2023-05-10T13:17:41;18.90;99.90
30206;DHT22;17010;51.306;3.150;2023-05-10T13:20:22;19.10;99.90
30206;DHT22;17010;51.306;3.150;2023-05-10T13:22:50;19.30;99.90
30206;DHT22;17010;51.306;3.150;2023-05-10T13:25:39;19.50;99.90
30206;DHT22;17010;51.306;3.150;2023-05-10T13:28:36;19.80;99.90
30206;DHT22;17010;51.306;3.150;2023-05-10T13:36:44;20.60;99.90
30206;DHT22;17010;51.306;3.150;2023-05-10T13:39:32;20.50;99.90
30206;DHT22;17010;51.306;3.150;2023-05-10T13:45:59;20.80;99.90
30206;DHT22;17010;51.306;3.150;2023-05-10T13:49:10;20.50;99.90
30206;DHT22;17010;51.306;3.150;2023-05-10T13:52:00;20.00;99.90
30206;DHT22;17010;51.306;3.150;2023-05-10T13:55:11;19.80;99.90
30206;DHT22;17010;51.306;3.150;2023-05-10T13:58:14;19.60;99.90
30206;DHT22;17010;51.306;3.150;2023-05-10T14:00:57;19.50;99.90
30206;DHT22;17010;51.306;3.150;2023-05-10T14:03:40;19.00;99.90
30206;DHT22;17010;51.306;3.150;2023-05-10T14:06:49;18.80;99.90
30206;DHT22;17010;51.306;3.150;2023-05-10T14:09:33;18.50;99.90
30206;DHT22;17010;51.306;3.150;2023-05-10T14:12:01;18.30;99.90
30206;DHT22;17010;51.306;3.150;2023-05-10T14:14:49;18.30;99.90
30206;DHT22;17010;51.306;3.150;2023-05-10T14:20:51;18.70;99.90
30206;DHT22;17010;51.306;3.150;2023-05-10T14:24:24;18.90;99.90
30206;DHT22;17010;51.306;3.150;2023-05-10T14:27:35;19.10;99.90
30206;DHT22;17010;51.306;3.150;2023-05-10T14:34:45;18.70;99.90
30206;DHT22;17010;51.306;3.150;2023-05-10T14:37:52;18.50;99.90
30206;DHT22;17010;51.306;3.150;2023-05-10T14:43:25;18.10;99.90
30206;DHT22;17010;51.306;3.150;2023-05-10T14:49:14;17.80;99.90
30206;DHT22;17010;51.306;3.150;2023-05-10T14:51:52;17.90;99.90
30206;DHT22;17010;51.306;3.150;2023-05-10T14:54:33;17.90;99.90
30206;DHT22;17010;51.306;3.150;2023-05-10T15:00:44;17.70;99.90
30206;DHT22;17010;51.306;3.150;2023-05-10T15:03:52;17.80;99.90
30206;DHT22;17010;51.306;3.150;2023-05-10T15:06:43;17.90;99.90
30206;DHT22;17010;51.306;3.150;2023-05-10T15:09:18;17.70;99.90
30206;DHT22;17010;51.306;3.150;2023-05-10T15:15:28;17.90;99.90
30206;DHT22;17010;51.306;3.150;2023-05-10T15:18:15;17.90;99.90
30206;DHT22;17010;51.306;3.150;2023-05-10T15:21:29;17.90;99.90
30206;DHT22;17010;51.306;3.150;2023-05-10T15:25:01;17.70;99.90
30206;DHT22;17010;51.306;3.150;2023-05-10T15:27:47;17.80;99.90
30206;DHT22;17010;51.306;3.150;2023-05-10T15:34:33;18.20;99.90
30206;DHT22;17010;51.306;3.150;2023-05-10T15:37:24;18.20;99.90
30206;DHT22;17010;51.306;3.150;2023-05-10T15:49:00;18.10;99.90
30206;DHT22;17010;51.306;3.150;2023-05-10T15:51:39;17.80;99.90
30206;DHT22;17010;51.306;3.150;2023-05-10T15:54:57;17.50;99.90
30206;DHT22;17010;51.306;3.150;2023-05-10T15:58:17;17.40;99.90
30206;DHT22;17010;51.306;3.150;2023-05-10T16:01:26;17.60;99.90
30206;DHT22;17010;51.306;3.150;2023-05-10T16:04:27;17.70;99.90
30206;DHT22;17010;51.306;3.150;2023-05-10T16:07:10;17.50;99.90
30206;DHT22;17010;51.306;3.150;2023-05-10T16:10:34;17.40;99.90
30206;DHT22;17010;51.306;3.150;2023-05-10T16:16:50;17.50;99.90
30206;DHT22;17010;51.306;3.150;2023-05-10T16:19:29;17.50;99.90
30206;DHT22;17010;51.306;3.150;2023-05-10T16:22:55;17.50;99.90
30206;DHT22;17010;51.306;3.150;2023-05-10T16:48:05;17.30;99.90
30206;DHT22;17010;51.306;3.150;2023-05-10T16:51:25;17.20;99.90
30206;DHT22;17010;51.306;3.150;2023-05-10T16:54:27;17.00;99.90
30206;DHT22;17010;51.306;3.150;2023-05-10T16:57:47;16.80;99.90
30206;DHT22;17010;51.306;3.150;2023-05-10T17:01:07;16.50;99.90
30206;DHT22;17010;51.306;3.150;2023-05-10T17:04:30;16.50;99.90
30206;DHT22;17010;51.306;3.150;2023-05-10T17:07:41;16.70;99.90
30206;DHT22;17010;51.306;3.150;2023-05-10T17:11:14;16.90;99.90
30206;DHT22;17010;51.306;3.150;2023-05-10T17:14:09;16.90;99.90
30206;DHT22;17010;51.306;3.150;2023-05-10T17:17:15;16.90;99.90
30206;DHT22;17010;51.306;3.150;2023-05-10T17:22:57;16.70;99.90
30206;DHT22;17010;51.306;3.150;2023-05-10T17:25:48;16.40;99.90
30206;DHT22;17010;51.306;3.150;2023-05-10T17:42:37;15.80;99.90
30206;DHT22;17010;51.306;3.150;2023-05-10T17:45:15;15.80;99.90
30206;DHT22;17010;51.306;3.150;2023-05-10T17:48:21;15.80;99.90
30206;DHT22;17010;51.306;3.150;2023-05-10T17:51:59;15.80;99.90
30206;DHT22;17010;51.306;3.150;2023-05-10T17:55:14;15.80;99.90
30206;DHT22;17010;51.306;3.150;2023-05-10T17:58:03;15.80;99.90
30206;DHT22;17010;51.306;3.150;2023-05-10T18:00:35;15.70;99.90
30206;DHT22;17010;51.306;3.150;2023-05-10T18:03:37;15.60;99.90
30206;DHT22;17010;51.306;3.150;2023-05-10T18:06:14;15.50;99.90
30206;DHT22;17010;51.306;3.150;2023-05-10T18:08:45;15.50;99.90
30206;DHT22;17010;51.306;3.150;2023-05-10T18:11:41;15.40;99.90
30206;DHT22;17010;51.306;3.150;2023-05-10T18:15:04;15.20;99.90
30206;DHT22;17010;51.306;3.150;2023-05-10T18:18:14;15.10;99.90
30206;DHT22;17010;51.306;3.150;2023-05-10T18:21:14;15.10;99.90
30206;DHT22;17010;51.306;3.150;2023-05-10T18:28:02;15.10;99.90
30206;DHT22;17010;51.306;3.150;2023-05-10T18:30:52;15.10;99.90
30206;DHT22;17010;51.306;3.150;2023-05-10T18:35:57;15.00;99.90
30206;DHT22;17010;51.306;3.150;2023-05-10T18:38:24;15.00;99.90
30206;DHT22;17010;51.306;3.150;2023-05-10T18:40:50;15.00;99.90
30206;DHT22;17010;51.306;3.150;2023-05-10T18:43:16;14.90;99.90
30206;DHT22;17010;51.306;3.150;2023-05-10T18:45:46;14.90;99.90
30206;DHT22;17010;51.306;3.150;2023-05-10T18:48:13;14.80;99.90
30206;DHT22;17010;51.306;3.150;2023-05-10T18:50:40;14.80;99.90
30206;DHT22;17010;51.306;3.150;2023-05-10T18:53:06;14.80;99.90
30206;DHT22;17010;51.306;3.150;2023-05-10T18:55:32;14.80;99.90
30206;DHT22;17010;51.306;3.150;2023-05-10T18:57:59;14.70;99.90
30206;DHT22;17010;51.306;3.150;2023-05-10T19:00:25;14.60;99.90
30206;DHT22;17010;51.306;3.150;2023-05-10T19:02:51;14.50;99.90
30206;DHT22;17010;51.306;3.150;2023-05-10T19:05:18;14.40;99.90
30206;DHT22;17010;51.306;3.150;2023-05-10T19:07:46;14.40;99.90
30206;DHT22;17010;51.306;3.150;2023-05-10T19:10:13;14.30;99.90
30206;DHT22;17010;51.306;3.150;2023-05-10T19:12:39;14.30;99.90
30206;DHT22;17010;51.306;3.150;2023-05-10T19:15:08;14.20;99.90
30206;DHT22;17010;51.306;3.150;2023-05-10T19:17:35;14.20;99.90
30206;DHT22;17010;51.306;3.150;2023-05-10T19:20:04;14.20;99.90
30206;DHT22;17010;51.306;3.150;2023-05-10T19:22:31;14.10;99.90
30206;DHT22;17010;51.306;3.150;2023-05-10T19:24:57;14.10;99.90
30206;DHT22;17010;51.306;3.150;2023-05-10T19:27:23;14.10;99.90
30206;DHT22;17010;51.306;3.150;2023-05-10T19:29:50;14.10;99.90
30206;DHT22;17010;51.306;3.150;2023-05-10T19:32:18;14.10;99.90
30206;DHT22;17010;51.306;3.150;2023-05-10T19:34:46;14.10;99.90
30206;DHT22;17010;51.306;3.150;2023-05-10T19:37:12;14.10;99.90
30206;DHT22;17010;51.306;3.150;2023-05-10T19:39:39;14.00;99.90
30206;DHT22;17010;51.306;3.150;2023-05-10T19:42:05;14.00;99.90
30206;DHT22;17010;51.306;3.150;2023-05-10T19:44:31;13.90;99.90
30206;DHT22;17010;51.306;3.150;2023-05-10T19:47:00;14.00;99.90
30206;DHT22;17010;51.306;3.150;2023-05-10T19:49:30;13.90;99.90
30206;DHT22;17010;51.306;3.150;2023-05-10T19:51:56;13.90;99.90
30206;DHT22;17010;51.306;3.150;2023-05-10T19:54:22;13.90;99.90
30206;DHT22;17010;51.306;3.150;2023-05-10T19:56:48;13.90;99.90
30206;DHT22;17010;51.306;3.150;2023-05-10T19:59:14;13.80;99.90
30206;DHT22;17010;51.306;3.150;2023-05-10T20:01:41;13.80;99.90
30206;DHT22;17010;51.306;3.150;2023-05-10T20:04:07;13.80;99.90
30206;DHT22;17010;51.306;3.150;2023-05-10T20:06:35;13.80;99.90
30206;DHT22;17010;51.306;3.150;2023-05-10T20:09:03;13.80;99.90